createdAt,value
2016-12-15T00:00:44.855Z,7
2016-12-15T00:01:55.851Z,6.97
2016-12-15T00:03:06.860Z,6.93
2016-12-15T00:04:17.845Z,6.97
2016-12-15T00:05:28.840Z,6.98
2016-12-15T00:06:39.828Z,6.9
2016-12-15T00:07:50.814Z,6.88
2016-12-15T00:09:01.812Z,6.88
2016-12-15T00:10:12.860Z,6.88
2016-12-15T00:11:24.055Z,6.88
2016-12-15T00:12:35.068Z,6.83
2016-12-15T00:13:46.049Z,6.79
2016-12-15T00:14:57.041Z,6.8
2016-12-15T00:16:08.081Z,6.79
2016-12-15T00:17:19.076Z,6.82
2016-12-15T00:18:30.054Z,6.76
2016-12-15T00:19:41.031Z,6.76
2016-12-15T00:20:52.005Z,6.78
2016-12-15T00:22:02.989Z,6.78
2016-12-15T00:23:14.173Z,6.58
2016-12-15T00:24:25.153Z,6.73
2016-12-15T00:25:36.135Z,6.62
2016-12-15T00:26:47.155Z,6.67
2016-12-15T00:27:58.140Z,6.62
2016-12-15T00:29:09.126Z,6.67
2016-12-15T00:30:20.318Z,6.61
2016-12-15T00:31:31.305Z,6.55
2016-12-15T00:32:42.287Z,6.52
2016-12-15T00:33:53.466Z,6.47
2016-12-15T00:35:04.456Z,6.49
2016-12-15T00:36:15.443Z,6.43
2016-12-15T00:37:26.427Z,6.37
2016-12-15T00:38:37.413Z,6.4
2016-12-15T00:39:48.394Z,6.4
2016-12-15T00:40:59.379Z,6.4
2016-12-15T00:42:10.364Z,6.37
2016-12-15T00:43:21.552Z,6.4
2016-12-15T00:44:32.549Z,6.42
2016-12-15T00:45:43.529Z,6.36
2016-12-15T00:46:54.520Z,6.31
2016-12-15T00:48:05.503Z,6.29
2016-12-15T00:49:16.493Z,6.39
2016-12-15T00:50:27.471Z,6.28
2016-12-15T00:51:38.462Z,6.17
2016-12-15T00:52:49.448Z,6.24
2016-12-15T00:54:00.440Z,6.25
2016-12-15T00:55:11.420Z,6.31
2016-12-15T00:56:22.408Z,6.26
2016-12-15T00:57:33.390Z,6.18
2016-12-15T00:58:44.400Z,6.14
2016-12-15T00:59:55.385Z,6.14
2016-12-15T01:01:06.373Z,6.17
2016-12-15T01:02:17.364Z,6.05
2016-12-15T01:03:28.355Z,6.07
2016-12-15T01:04:39.549Z,6.13
2016-12-15T01:05:50.532Z,6
2016-12-15T01:07:01.523Z,6
2016-12-15T01:08:12.714Z,6.06
2016-12-15T01:09:23.703Z,5.91
2016-12-15T01:10:34.948Z,5.96
2016-12-15T01:11:45.929Z,5.95
2016-12-15T01:12:56.918Z,5.88
2016-12-15T01:14:08.107Z,5.87
2016-12-15T01:15:19.126Z,5.75
2016-12-15T01:16:30.114Z,5.73
2016-12-15T01:17:41.105Z,5.73
2016-12-15T01:18:52.094Z,5.7
2016-12-15T01:20:03.075Z,5.69
2016-12-15T01:21:14.055Z,5.69
2016-12-15T01:22:25.249Z,5.57
2016-12-15T01:23:36.226Z,5.73
2016-12-15T01:24:47.209Z,5.67
2016-12-15T01:25:58.194Z,5.67
2016-12-15T01:27:09.181Z,5.62
2016-12-15T01:28:20.165Z,5.66
2016-12-15T01:29:31.150Z,5.57
2016-12-15T01:30:42.148Z,5.55
2016-12-15T01:31:53.134Z,5.55
2016-12-15T01:33:04.120Z,5.55
2016-12-15T01:34:15.115Z,5.48
2016-12-15T01:35:26.149Z,5.45
2016-12-15T01:36:37.128Z,5.51
2016-12-15T01:37:48.110Z,5.55
2016-12-15T01:38:59.294Z,5.52
2016-12-15T01:40:10.282Z,5.51
2016-12-15T01:41:21.264Z,5.55
2016-12-15T01:42:32.247Z,5.42
2016-12-15T01:43:43.236Z,5.45
2016-12-15T01:44:54.221Z,5.36
2016-12-15T01:46:05.209Z,5.42
2016-12-15T01:47:16.224Z,5.46
2016-12-15T01:48:27.415Z,5.52
2016-12-15T01:49:38.606Z,5.55
2016-12-15T01:50:49.640Z,5.49
2016-12-15T01:52:00.830Z,5.44
2016-12-15T01:53:11.820Z,5.42
2016-12-15T01:54:22.807Z,5.44
2016-12-15T01:55:33.812Z,5.52
2016-12-15T01:56:44.808Z,5.42
2016-12-15T01:57:55.799Z,5.33
2016-12-15T01:59:06.785Z,5.49
2016-12-15T02:00:17.770Z,5.39
2016-12-15T02:01:28.765Z,5.41
2016-12-15T02:02:39.750Z,5.34
2016-12-15T02:03:50.740Z,5.44
2016-12-15T02:05:01.733Z,5.39
2016-12-15T02:06:12.920Z,5.39
2016-12-15T02:07:24.100Z,5.36
2016-12-15T02:08:35.283Z,5.34
2016-12-15T02:09:46.475Z,5.28
2016-12-15T02:10:57.464Z,5.34
2016-12-15T02:12:08.479Z,5.34
2016-12-15T02:13:19.464Z,5.36
2016-12-15T02:14:30.449Z,5.3
2016-12-15T02:15:41.633Z,5.3
2016-12-15T02:16:52.616Z,5.3
2016-12-15T02:18:03.805Z,5.3
2016-12-15T02:19:15.188Z,5.31
2016-12-15T02:20:26.570Z,5.3
2016-12-15T02:21:37.567Z,5.31
2016-12-15T02:22:48.552Z,5.28
2016-12-15T02:23:59.552Z,5.33
2016-12-15T02:25:10.540Z,5.27
2016-12-15T02:26:21.525Z,5.33
2016-12-15T02:27:32.524Z,5.28
2016-12-15T02:28:43.519Z,5.28
2016-12-15T02:29:54.511Z,5.33
2016-12-15T02:31:05.709Z,5.3
2016-12-15T02:32:16.724Z,5.23
2016-12-15T02:33:27.715Z,5.21
2016-12-15T02:34:38.930Z,5.24
2016-12-15T02:35:49.918Z,5.13
2016-12-15T02:37:00.899Z,5.24
2016-12-15T02:38:12.084Z,5.15
2016-12-15T02:39:23.100Z,5.18
2016-12-15T02:40:34.132Z,5.12
2016-12-15T02:41:45.121Z,5.16
2016-12-15T02:42:56.111Z,5.08
2016-12-15T02:44:07.109Z,5.1
2016-12-15T02:45:18.096Z,5.1
2016-12-15T02:46:29.291Z,5.08
2016-12-15T02:47:40.278Z,5.16
2016-12-15T02:48:51.261Z,5.06
2016-12-15T02:50:02.298Z,5.15
2016-12-15T02:51:13.288Z,5.09
2016-12-15T02:52:24.265Z,5.03
2016-12-15T02:53:35.451Z,5
2016-12-15T02:54:46.437Z,5
2016-12-15T02:55:57.428Z,4.98
2016-12-15T02:57:08.414Z,5.06
2016-12-15T02:58:19.402Z,5.1
2016-12-15T02:59:30.399Z,5
2016-12-15T03:00:41.389Z,5
2016-12-15T03:01:52.577Z,5.03
2016-12-15T03:03:03.767Z,5.06
2016-12-15T03:04:14.754Z,4.98
2016-12-15T03:05:25.792Z,4.98
2016-12-15T03:06:36.779Z,5.02
2016-12-15T03:07:47.785Z,4.97
2016-12-15T03:08:58.784Z,5.02
2016-12-15T03:10:09.770Z,4.95
2016-12-15T03:11:20.763Z,4.9
2016-12-15T03:12:31.750Z,4.97
2016-12-15T03:13:42.743Z,4.95
2016-12-15T03:14:53.764Z,5.02
2016-12-15T03:16:04.946Z,4.87
2016-12-15T03:17:15.940Z,4.98
2016-12-15T03:18:26.924Z,4.94
2016-12-15T03:19:37.912Z,5.02
2016-12-15T03:20:48.893Z,4.84
2016-12-15T03:21:59.880Z,4.87
2016-12-15T03:23:10.870Z,4.94
2016-12-15T03:24:21.856Z,4.94
2016-12-15T03:25:32.848Z,4.91
2016-12-15T03:26:43.839Z,4.92
2016-12-15T03:27:54.820Z,4.94
2016-12-15T03:29:05.812Z,4.94
2016-12-15T03:30:16.793Z,4.94
2016-12-15T03:31:27.778Z,4.78
2016-12-15T03:32:38.773Z,4.87
2016-12-15T03:33:49.751Z,4.87
2016-12-15T03:35:00.747Z,4.84
2016-12-15T03:36:11.933Z,4.87
2016-12-15T03:37:22.918Z,4.78
2016-12-15T03:38:34.304Z,4.74
2016-12-15T03:39:45.295Z,4.76
2016-12-15T03:40:56.279Z,4.76
2016-12-15T03:42:07.267Z,4.75
2016-12-15T03:43:18.455Z,4.78
2016-12-15T03:44:29.448Z,4.78
2016-12-15T03:45:40.436Z,4.66
2016-12-15T03:46:51.429Z,4.72
2016-12-15T03:48:02.606Z,4.69
2016-12-15T03:49:13.599Z,4.72
2016-12-15T03:50:24.613Z,4.68
2016-12-15T03:51:35.601Z,4.72
2016-12-15T03:52:46.582Z,4.68
2016-12-15T03:53:57.571Z,4.66
2016-12-15T03:55:08.763Z,4.64
2016-12-15T03:56:19.758Z,4.69
2016-12-15T03:57:30.748Z,4.66
2016-12-15T03:58:41.937Z,4.57
2016-12-15T03:59:52.926Z,4.64
2016-12-15T04:01:03.908Z,4.64
2016-12-15T04:02:14.892Z,4.65
2016-12-15T04:03:25.883Z,4.58
2016-12-15T04:04:36.870Z,4.54
2016-12-15T04:05:47.906Z,4.66
2016-12-15T04:06:58.885Z,4.6
2016-12-15T04:08:10.082Z,4.56
2016-12-15T04:09:21.066Z,4.5
2016-12-15T04:10:32.050Z,4.58
2016-12-15T04:11:43.090Z,4.5
2016-12-15T04:12:54.074Z,4.57
2016-12-15T04:14:05.263Z,4.46
2016-12-15T04:15:16.254Z,4.53
2016-12-15T04:16:27.235Z,4.51
2016-12-15T04:17:38.476Z,4.47
2016-12-15T04:18:49.460Z,4.46
2016-12-15T04:20:00.441Z,4.38
2016-12-15T04:21:11.656Z,4.36
2016-12-15T04:22:22.646Z,4.44
2016-12-15T04:23:33.682Z,4.4
2016-12-15T04:24:44.666Z,4.38
2016-12-15T04:25:55.651Z,4.3
2016-12-15T04:27:06.640Z,4.38
2016-12-15T04:28:17.625Z,4.38
2016-12-15T04:29:28.860Z,4.38
2016-12-15T04:30:39.850Z,4.4
2016-12-15T04:31:50.844Z,4.29
2016-12-15T04:33:01.833Z,4.39
2016-12-15T04:34:12.824Z,4.39
2016-12-15T04:35:23.861Z,4.42
2016-12-15T04:36:35.252Z,4.44
2016-12-15T04:37:46.226Z,4.44
2016-12-15T04:38:57.211Z,4.32
2016-12-15T04:40:08.389Z,4.4
2016-12-15T04:41:19.628Z,4.3
2016-12-15T04:42:30.614Z,4.32
2016-12-15T04:43:41.832Z,4.28
2016-12-15T04:44:52.824Z,4.26
2016-12-15T04:46:03.833Z,4.3
2016-12-15T04:47:14.861Z,4.26
2016-12-15T04:48:25.868Z,4.36
2016-12-15T04:49:36.855Z,4.24
2016-12-15T04:50:48.038Z,4.28
2016-12-15T04:51:59.224Z,4.18
2016-12-15T04:53:10.264Z,4.21
2016-12-15T04:54:21.255Z,4.21
2016-12-15T04:55:32.239Z,4.15
2016-12-15T04:56:43.224Z,4.14
2016-12-15T04:57:54.407Z,4.17
2016-12-15T04:59:05.449Z,4.17
2016-12-15T05:00:16.632Z,4.15
2016-12-15T05:01:27.619Z,4.15
2016-12-15T05:02:38.604Z,4.07
2016-12-15T05:03:49.623Z,4.12
2016-12-15T05:05:00.861Z,4.15
2016-12-15T05:06:11.843Z,4.11
2016-12-15T05:07:23.234Z,4.14
2016-12-15T05:08:34.224Z,4.11
2016-12-15T05:09:45.215Z,4.02
2016-12-15T05:10:56.409Z,3.99
2016-12-15T05:12:07.402Z,3.97
2016-12-15T05:13:18.385Z,3.94
2016-12-15T05:14:29.370Z,3.96
2016-12-15T05:15:40.558Z,3.97
2016-12-15T05:16:51.537Z,3.94
2016-12-15T05:18:02.525Z,3.82
2016-12-15T05:19:13.510Z,3.96
2016-12-15T05:20:24.492Z,3.97
2016-12-15T05:21:35.480Z,3.99
2016-12-15T05:22:46.465Z,3.85
2016-12-15T05:23:57.456Z,3.89
2016-12-15T05:25:08.497Z,3.93
2016-12-15T05:26:19.674Z,3.76
2016-12-15T05:27:30.657Z,3.74
2016-12-15T05:28:41.644Z,3.76
2016-12-15T05:29:52.637Z,3.75
2016-12-15T05:31:03.621Z,3.82
2016-12-15T05:32:14.811Z,3.82
2016-12-15T05:33:25.998Z,3.84
2016-12-15T05:34:37.017Z,3.79
2016-12-15T05:35:48.002Z,3.81
2016-12-15T05:36:59.188Z,3.79
2016-12-15T05:38:10.390Z,3.72
2016-12-15T05:39:21.570Z,3.72
2016-12-15T05:40:32.554Z,3.71
2016-12-15T05:41:43.538Z,3.82
2016-12-15T05:42:54.551Z,3.75
2016-12-15T05:44:05.533Z,3.79
2016-12-15T05:45:16.551Z,3.71
2016-12-15T05:46:27.539Z,3.79
2016-12-15T05:47:38.528Z,3.71
2016-12-15T05:48:49.507Z,3.71
2016-12-15T05:50:00.691Z,3.85
2016-12-15T05:51:11.672Z,3.82
2016-12-15T05:52:22.859Z,3.85
2016-12-15T05:53:33.839Z,3.75
2016-12-15T05:54:44.824Z,3.74
2016-12-15T05:55:56.009Z,3.72
2016-12-15T05:57:07.005Z,3.75
2016-12-15T05:58:18.190Z,3.72
2016-12-15T05:59:29.174Z,3.69
2016-12-15T06:00:40.446Z,3.75
2016-12-15T06:01:51.439Z,3.71
2016-12-15T06:03:02.424Z,3.75
2016-12-15T06:04:13.609Z,3.81
2016-12-15T06:05:24.612Z,3.75
2016-12-15T06:06:35.649Z,3.71
2016-12-15T06:07:46.642Z,3.72
2016-12-15T06:08:57.626Z,3.76
2016-12-15T06:10:08.620Z,3.76
2016-12-15T06:11:19.604Z,3.79
2016-12-15T06:12:30.640Z,3.61
2016-12-15T06:13:41.624Z,3.74
2016-12-15T06:14:52.609Z,3.69
2016-12-15T06:16:03.588Z,3.78
2016-12-15T06:17:14.575Z,3.78
2016-12-15T06:18:25.610Z,3.67
2016-12-15T06:19:36.590Z,3.71
2016-12-15T06:20:47.600Z,3.61
2016-12-15T06:21:58.589Z,3.67
2016-12-15T06:23:09.787Z,3.71
2016-12-15T06:24:20.823Z,3.69
2016-12-15T06:25:31.839Z,3.75
2016-12-15T06:26:42.827Z,3.63
2016-12-15T06:27:53.831Z,3.69
2016-12-15T06:29:04.820Z,3.69
2016-12-15T06:30:15.814Z,3.72
2016-12-15T06:31:26.805Z,3.72
2016-12-15T06:32:37.791Z,3.6
2016-12-15T06:33:48.777Z,3.61
2016-12-15T06:34:59.757Z,3.58
2016-12-15T06:36:10.751Z,3.57
2016-12-15T06:37:21.765Z,3.58
2016-12-15T06:38:32.755Z,3.58
2016-12-15T06:39:43.740Z,3.56
2016-12-15T06:40:54.730Z,3.48
2016-12-15T06:42:05.724Z,3.53
2016-12-15T06:43:16.701Z,3.54
2016-12-15T06:44:27.688Z,3.58
2016-12-15T06:45:38.678Z,3.56
2016-12-15T06:46:49.660Z,3.54
2016-12-15T06:48:00.643Z,3.54
2016-12-15T06:49:11.628Z,3.61
2016-12-15T06:50:22.665Z,3.57
2016-12-15T06:51:33.655Z,3.53
2016-12-15T06:52:44.637Z,3.57
2016-12-15T06:53:55.629Z,3.58
2016-12-15T06:55:06.613Z,3.56
2016-12-15T06:56:17.647Z,3.51
2016-12-15T06:57:28.633Z,3.49
2016-12-15T06:58:39.639Z,3.48
2016-12-15T06:59:50.619Z,3.37
2016-12-15T07:01:01.602Z,3.49
2016-12-15T07:02:12.639Z,3.4
2016-12-15T07:03:23.620Z,3.35
2016-12-15T07:04:34.812Z,3.32
2016-12-15T07:05:45.792Z,3.34
2016-12-15T07:06:56.780Z,3.32
2016-12-15T07:08:07.824Z,3.37
2016-12-15T07:09:18.802Z,3.27
2016-12-15T07:10:29.979Z,3.21
2016-12-15T07:11:40.960Z,3.2
2016-12-15T07:12:51.946Z,3.23
2016-12-15T07:14:02.978Z,3.23
2016-12-15T07:15:13.955Z,3.17
2016-12-15T07:16:24.941Z,3.17
2016-12-15T07:17:35.921Z,3.21
2016-12-15T07:18:46.906Z,3.16
2016-12-15T07:19:57.947Z,3.17
2016-12-15T07:21:08.930Z,3.14
2016-12-15T07:22:20.108Z,3.23
2016-12-15T07:23:31.089Z,3.23
2016-12-15T07:24:42.077Z,3.17
2016-12-15T07:25:53.068Z,3.13
2016-12-15T07:27:04.066Z,3.13
2016-12-15T07:28:15.050Z,3.21
2016-12-15T07:29:26.033Z,3.19
2016-12-15T07:30:37.422Z,3.14
2016-12-15T07:31:48.401Z,3.11
2016-12-15T07:32:59.393Z,3.17
2016-12-15T07:34:10.378Z,3.17
2016-12-15T07:35:21.563Z,3.13
2016-12-15T07:36:32.541Z,3.17
2016-12-15T07:37:43.519Z,3.19
2016-12-15T07:38:54.502Z,3.19
2016-12-15T07:40:05.486Z,3.17
2016-12-15T07:41:16.464Z,3.17
2016-12-15T07:42:27.448Z,3.19
2016-12-15T07:43:38.458Z,3.16
2016-12-15T07:44:49.432Z,3.21
2016-12-15T07:46:00.624Z,3.2
2016-12-15T07:47:11.813Z,3.19
2016-12-15T07:48:22.797Z,3.17
2016-12-15T07:49:33.792Z,3.14
2016-12-15T07:50:45.185Z,3.19
2016-12-15T07:51:56.168Z,3.23
2016-12-15T07:53:07.152Z,3.21
2016-12-15T07:54:18.541Z,3.2
2016-12-15T07:55:29.725Z,3.27
2016-12-15T07:56:40.712Z,3.26
2016-12-15T07:57:51.729Z,3.26
2016-12-15T07:59:02.712Z,3.35
2016-12-15T08:00:13.692Z,3.27
2016-12-15T08:01:24.669Z,3.27
2016-12-15T08:02:35.655Z,3.42
2016-12-15T08:03:46.637Z,3.45
2016-12-15T08:04:57.615Z,3.4
2016-12-15T08:06:08.801Z,3.37
2016-12-15T08:07:19.787Z,3.45
2016-12-15T08:08:30.783Z,3.43
2016-12-15T08:09:41.770Z,3.53
2016-12-15T08:10:52.954Z,3.6
2016-12-15T08:12:03.938Z,3.6
2016-12-15T08:13:14.923Z,3.64
2016-12-15T08:14:26.116Z,3.72
2016-12-15T08:15:37.098Z,3.78
2016-12-15T08:16:48.119Z,3.76
2016-12-15T08:17:59.108Z,3.75
2016-12-15T08:19:10.091Z,3.94
2016-12-15T08:20:21.072Z,4
2016-12-15T08:21:32.058Z,4.21
2016-12-15T08:22:43.037Z,4.28
2016-12-15T08:23:54.233Z,4.46
2016-12-15T08:25:05.221Z,4.54
2016-12-15T08:26:16.206Z,4.75
2016-12-15T08:27:27.210Z,4.85
2016-12-15T08:28:38.396Z,4.91
2016-12-15T08:29:49.386Z,4.94
2016-12-15T08:31:00.377Z,4.92
2016-12-15T08:32:11.372Z,4.97
2016-12-15T08:33:22.357Z,4.9
2016-12-15T08:34:33.358Z,4.94
2016-12-15T08:35:44.345Z,4.97
2016-12-15T08:36:55.334Z,4.98
2016-12-15T08:38:06.331Z,4.97
2016-12-15T08:39:17.508Z,5.16
2016-12-15T08:40:28.718Z,5.2
2016-12-15T08:41:39.695Z,5.39
2016-12-15T08:42:50.892Z,5.49
2016-12-15T08:44:01.890Z,5.52
2016-12-15T08:45:12.867Z,5.67
2016-12-15T08:46:23.860Z,5.72
2016-12-15T08:47:35.046Z,5.73
2016-12-15T08:48:46.017Z,5.85
2016-12-15T08:49:57.008Z,5.98
2016-12-15T08:51:08.258Z,5.92
2016-12-15T08:52:19.252Z,5.96
2016-12-15T08:53:30.236Z,6.07
2016-12-15T08:54:41.245Z,6.1
2016-12-15T08:55:52.229Z,6.21
2016-12-15T08:57:03.218Z,6.51
2016-12-15T08:58:14.409Z,6.73
2016-12-15T08:59:25.593Z,6.86
2016-12-15T09:00:36.779Z,7.01
2016-12-15T09:01:47.766Z,7.15
2016-12-15T09:02:58.778Z,7.13
2016-12-15T09:04:09.762Z,7.26
2016-12-15T09:05:20.755Z,7.23
2016-12-15T09:06:31.743Z,7.34
2016-12-15T09:07:42.740Z,7.51
2016-12-15T09:08:53.734Z,7.64
2016-12-15T09:10:04.725Z,7.86
2016-12-15T09:11:15.917Z,7.95
2016-12-15T09:12:26.915Z,8.14
2016-12-15T09:13:37.905Z,8.25
2016-12-15T09:14:48.892Z,8.21
2016-12-15T09:15:59.881Z,8.24
2016-12-15T09:17:10.874Z,8.24
2016-12-15T09:18:22.292Z,8.19
2016-12-15T09:19:33.479Z,8.24
2016-12-15T09:20:44.477Z,8.24
2016-12-15T09:21:55.490Z,8.22
2016-12-15T09:23:06.485Z,8.32
2016-12-15T09:24:17.470Z,8.42
2016-12-15T09:25:28.460Z,8.71
2016-12-15T09:26:39.451Z,8.92
2016-12-15T09:27:50.641Z,9
2016-12-15T09:29:01.629Z,9.14
2016-12-15T09:30:12.631Z,9.26
2016-12-15T09:31:23.628Z,9.41
2016-12-15T09:32:34.633Z,9.52
2016-12-15T09:33:45.626Z,9.59
2016-12-15T09:34:56.630Z,9.42
2016-12-15T09:36:07.631Z,9.56
2016-12-15T09:37:18.608Z,9.7
2016-12-15T09:38:29.608Z,9.81
2016-12-15T09:39:40.607Z,9.77
2016-12-15T09:40:51.801Z,9.84
2016-12-15T09:42:02.797Z,9.93
2016-12-15T09:43:13.791Z,9.98
2016-12-15T09:44:24.788Z,10.1
2016-12-15T09:45:35.792Z,10.25
2016-12-15T09:46:46.785Z,10.23
2016-12-15T09:47:57.776Z,10.46
2016-12-15T09:49:08.766Z,10.57
2016-12-15T09:50:19.813Z,10.7
2016-12-15T09:51:30.811Z,10.67
2016-12-15T09:52:41.825Z,10.67
2016-12-15T09:53:52.825Z,10.8
2016-12-15T09:55:03.821Z,10.84
2016-12-15T09:56:14.858Z,10.88
2016-12-15T09:57:25.847Z,10.88
2016-12-15T09:58:36.880Z,11.09
2016-12-15T09:59:47.876Z,11.15
2016-12-15T10:00:58.876Z,11.34
2016-12-15T10:02:10.125Z,11.35
2016-12-15T10:03:21.118Z,11.38
2016-12-15T10:04:32.114Z,11.38
2016-12-15T10:05:43.135Z,11.38
2016-12-15T10:06:54.167Z,11.33
2016-12-15T10:08:05.206Z,11.51
2016-12-15T10:09:16.393Z,11.53
2016-12-15T10:10:27.600Z,11.59
2016-12-15T10:11:38.591Z,11.46
2016-12-15T10:12:49.590Z,11.51
2016-12-15T10:14:00.644Z,11.79
2016-12-15T10:15:11.648Z,11.97
2016-12-15T10:16:22.646Z,12.1
2016-12-15T10:17:33.642Z,12.18
2016-12-15T10:18:44.634Z,12.29
2016-12-15T10:19:55.898Z,12.4
2016-12-15T10:21:06.892Z,12.55
2016-12-15T10:22:17.892Z,12.73
2016-12-15T10:23:29.090Z,12.78
2016-12-15T10:24:40.081Z,12.81
2016-12-15T10:25:51.146Z,12.76
2016-12-15T10:27:02.150Z,12.63
2016-12-15T10:28:13.358Z,12.78
2016-12-15T10:29:24.365Z,12.77
2016-12-15T10:30:35.362Z,12.94
2016-12-15T10:31:46.363Z,12.99
2016-12-15T10:32:57.362Z,13.11
2016-12-15T10:34:08.360Z,13.11
2016-12-15T10:35:19.412Z,13.07
2016-12-15T10:36:30.402Z,12.95
2016-12-15T10:37:41.404Z,12.92
2016-12-15T10:38:52.602Z,13.11
2016-12-15T10:40:03.660Z,13.36
2016-12-15T10:41:14.658Z,13.42
2016-12-15T10:42:25.648Z,13.31
2016-12-15T10:43:36.649Z,13.07
2016-12-15T10:44:47.653Z,12.81
2016-12-15T10:45:58.668Z,12.52
2016-12-15T10:47:09.666Z,12.33
2016-12-15T10:48:20.889Z,12.05
2016-12-15T10:49:31.877Z,11.84
2016-12-15T10:50:42.878Z,11.6
2016-12-15T10:51:53.873Z,11.24
2016-12-15T10:53:04.875Z,10.98
2016-12-15T10:54:15.868Z,10.83
2016-12-15T10:55:26.869Z,10.79
2016-12-15T10:56:37.870Z,10.66
2016-12-15T10:57:48.871Z,10.65
2016-12-15T10:58:59.856Z,10.66
2016-12-15T11:00:11.052Z,10.52
2016-12-15T11:01:22.246Z,10.33
2016-12-15T11:02:33.446Z,10.11
2016-12-15T11:03:44.443Z,9.99
2016-12-15T11:04:55.641Z,9.96
2016-12-15T11:06:06.652Z,9.81
2016-12-15T11:07:17.644Z,9.96
2016-12-15T11:08:28.639Z,10.29
2016-12-15T11:09:39.626Z,10.52
2016-12-15T11:10:50.619Z,10.67
2016-12-15T11:12:01.634Z,10.72
2016-12-15T11:13:12.621Z,10.52
2016-12-15T11:14:23.614Z,10.25
2016-12-15T11:15:34.816Z,9.85
2016-12-15T11:16:46.005Z,9.52
2016-12-15T11:17:57.026Z,9.38
2016-12-15T11:19:08.014Z,9.39
2016-12-15T11:20:19.005Z,9.37
2016-12-15T11:21:30.006Z,9.39
2016-12-15T11:22:41.007Z,9.35
2016-12-15T11:23:52.037Z,9.26
2016-12-15T11:25:03.086Z,9.2
2016-12-15T11:26:14.082Z,9.14
2016-12-15T11:27:25.074Z,9
2016-12-15T11:28:36.070Z,9
2016-12-15T11:29:47.075Z,9.03
2016-12-15T11:30:58.072Z,8.95
2016-12-15T11:32:09.276Z,8.95
2016-12-15T11:33:20.271Z,8.86
2016-12-15T11:34:31.267Z,8.87
2016-12-15T11:35:42.256Z,8.98
2016-12-15T11:36:53.252Z,9.12
2016-12-15T11:38:04.238Z,9.39
2016-12-15T11:39:15.223Z,9.56
2016-12-15T11:40:26.419Z,9.63
2016-12-15T11:41:37.807Z,9.71
2016-12-15T11:42:48.806Z,9.56
2016-12-15T11:43:59.801Z,9.39
2016-12-15T11:45:10.798Z,9.37
2016-12-15T11:46:21.785Z,9.35
2016-12-15T11:47:32.771Z,9.08
2016-12-15T11:48:43.759Z,9.11
2016-12-15T11:49:54.743Z,9.04
2016-12-15T11:51:05.737Z,8.9
2016-12-15T11:52:16.751Z,8.77
2016-12-15T11:53:27.743Z,8.62
2016-12-15T11:54:38.933Z,8.61
2016-12-15T11:55:49.979Z,8.65
2016-12-15T11:57:00.981Z,8.54
2016-12-15T11:58:11.966Z,8.54
2016-12-15T11:59:22.956Z,8.58
2016-12-15T12:00:33.940Z,8.52
2016-12-15T12:01:44.925Z,8.52
2016-12-15T12:02:55.910Z,8.49
2016-12-15T12:04:07.112Z,8.42
2016-12-15T12:05:18.299Z,8.5
2016-12-15T12:06:29.283Z,8.42
2016-12-15T12:07:40.276Z,8.43
2016-12-15T12:08:51.260Z,8.42
2016-12-15T12:10:02.298Z,8.44
2016-12-15T12:11:13.281Z,8.39
2016-12-15T12:12:24.271Z,8.31
2016-12-15T12:13:35.263Z,8.29
2016-12-15T12:14:46.281Z,8.35
2016-12-15T12:15:57.723Z,8.31
2016-12-15T12:17:08.719Z,8.25
2016-12-15T12:18:19.701Z,8.25
2016-12-15T12:19:30.689Z,8.34
2016-12-15T12:20:41.671Z,8.32
2016-12-15T12:21:52.722Z,8.28
2016-12-15T12:23:03.711Z,8.25
2016-12-15T12:24:14.694Z,8.32
2016-12-15T12:25:25.680Z,8.29
2016-12-15T12:26:36.671Z,8.22
2016-12-15T12:27:47.716Z,8.19
2016-12-15T12:28:58.709Z,8.14
2016-12-15T12:30:10.095Z,8.19
2016-12-15T12:31:21.084Z,8.16
2016-12-15T12:32:32.070Z,8.19
2016-12-15T12:33:43.106Z,8.17
2016-12-15T12:34:54.286Z,8.16
2016-12-15T12:36:05.301Z,8.09
2016-12-15T12:37:16.290Z,8.21
2016-12-15T12:38:27.275Z,8.07
2016-12-15T12:39:38.315Z,8.07
2016-12-15T12:40:49.297Z,8.09
2016-12-15T12:42:00.490Z,7.93
2016-12-15T12:43:11.472Z,7.95
2016-12-15T12:44:22.462Z,7.98
2016-12-15T12:45:33.506Z,7.89
2016-12-15T12:46:44.494Z,7.86
2016-12-15T12:47:55.490Z,7.89
2016-12-15T12:49:06.489Z,7.89
2016-12-15T12:50:17.473Z,7.93
2016-12-15T12:51:28.516Z,7.91
2016-12-15T12:52:39.502Z,7.85
2016-12-15T12:53:50.684Z,7.91
2016-12-15T12:55:01.884Z,7.88
2016-12-15T12:56:13.069Z,7.91
2016-12-15T12:57:24.316Z,7.83
2016-12-15T12:58:35.317Z,7.92
2016-12-15T12:59:46.297Z,7.82
2016-12-15T13:00:57.293Z,7.86
2016-12-15T13:02:08.688Z,7.8
2016-12-15T13:03:19.723Z,7.78
2016-12-15T13:04:30.712Z,7.73
2016-12-15T13:05:41.724Z,7.7
2016-12-15T13:06:52.740Z,7.61
2016-12-15T13:08:03.731Z,7.61
2016-12-15T13:09:14.969Z,7.68
2016-12-15T13:10:25.951Z,7.74
2016-12-15T13:11:36.936Z,7.73
2016-12-15T13:12:47.924Z,7.71
2016-12-15T13:13:58.911Z,7.7
2016-12-15T13:15:09.943Z,7.68
2016-12-15T13:16:20.931Z,7.74
2016-12-15T13:17:31.926Z,7.63
2016-12-15T13:18:42.916Z,7.58
2016-12-15T13:19:53.904Z,7.64
2016-12-15T13:21:04.931Z,7.64
2016-12-15T13:22:15.918Z,7.63
2016-12-15T13:23:26.897Z,7.59
2016-12-15T13:24:37.876Z,7.63
2016-12-15T13:25:49.061Z,7.68
2016-12-15T13:27:00.327Z,7.56
2016-12-15T13:28:11.516Z,7.61
2016-12-15T13:29:22.508Z,7.61
2016-12-15T13:30:33.504Z,7.54
2016-12-15T13:31:44.499Z,7.59
2016-12-15T13:32:55.535Z,7.58
2016-12-15T13:34:06.524Z,7.58
2016-12-15T13:35:17.522Z,7.59
2016-12-15T13:36:28.509Z,7.59
2016-12-15T13:37:39.493Z,7.54
2016-12-15T13:38:50.732Z,7.56
2016-12-15T13:40:01.722Z,7.64
2016-12-15T13:41:12.712Z,7.63
2016-12-15T13:42:24.102Z,7.64
2016-12-15T13:43:35.126Z,7.59
2016-12-15T13:44:46.160Z,7.67
2016-12-15T13:45:57.153Z,7.61
2016-12-15T13:47:08.142Z,7.55
2016-12-15T13:48:19.325Z,7.59
2016-12-15T13:49:30.517Z,7.63
2016-12-15T13:50:41.509Z,7.73
2016-12-15T13:51:52.500Z,7.63
2016-12-15T13:53:03.494Z,7.63
2016-12-15T13:54:14.482Z,7.74
2016-12-15T13:55:25.472Z,7.67
2016-12-15T13:56:36.661Z,7.74
2016-12-15T13:57:47.653Z,7.71
2016-12-15T13:58:58.670Z,7.68
2016-12-15T14:00:09.711Z,7.68
2016-12-15T14:01:20.707Z,7.7
2016-12-15T14:02:31.904Z,7.64
2016-12-15T14:03:43.094Z,7.59
2016-12-15T14:04:54.084Z,7.55
2016-12-15T14:06:05.116Z,7.64
2016-12-15T14:07:16.099Z,7.58
2016-12-15T14:08:27.091Z,7.59
2016-12-15T14:09:38.075Z,7.52
2016-12-15T14:10:49.066Z,7.51
2016-12-15T14:12:00.095Z,7.47
2016-12-15T14:13:11.090Z,7.47
2016-12-15T14:14:22.075Z,7.47
2016-12-15T14:15:33.060Z,7.49
2016-12-15T14:16:44.040Z,7.47
2016-12-15T14:17:55.277Z,7.41
2016-12-15T14:19:06.299Z,7.47
2016-12-15T14:20:17.279Z,7.4
2016-12-15T14:21:28.270Z,7.37
2016-12-15T14:22:39.250Z,7.39
2016-12-15T14:23:50.492Z,7.36
2016-12-15T14:25:01.484Z,7.37
2016-12-15T14:26:12.479Z,7.44
2016-12-15T14:27:23.472Z,7.4
2016-12-15T14:28:34.463Z,7.33
2016-12-15T14:29:45.498Z,7.34
2016-12-15T14:30:56.479Z,7.29
2016-12-15T14:32:07.666Z,7.37
2016-12-15T14:33:18.653Z,7.23
2016-12-15T14:34:29.641Z,7.31
2016-12-15T14:35:40.623Z,7.19
2016-12-15T14:36:51.817Z,7.27
2016-12-15T14:38:02.806Z,7.22
2016-12-15T14:39:13.797Z,7.23
2016-12-15T14:40:24.787Z,7.19
2016-12-15T14:41:35.779Z,7.19
2016-12-15T14:42:46.779Z,7.12
2016-12-15T14:43:57.771Z,7.19
2016-12-15T14:45:08.761Z,7.13
2016-12-15T14:46:19.742Z,7.04
2016-12-15T14:47:30.722Z,6.97
2016-12-15T14:48:41.708Z,6.98
2016-12-15T14:49:52.692Z,6.93
2016-12-15T14:51:03.672Z,6.97
2016-12-15T14:52:14.654Z,6.91
2016-12-15T14:53:25.665Z,6.94
2016-12-15T14:54:36.644Z,6.93
2016-12-15T14:55:47.825Z,6.82
2016-12-15T14:56:58.833Z,6.79
2016-12-15T14:58:09.825Z,6.85
2016-12-15T14:59:20.812Z,6.67
2016-12-15T15:00:31.845Z,6.75
2016-12-15T15:01:42.838Z,6.62
2016-12-15T15:02:53.820Z,6.64
2016-12-15T15:04:04.810Z,6.67
2016-12-15T15:05:15.805Z,6.7
2016-12-15T15:06:26.996Z,6.58
2016-12-15T15:07:37.982Z,6.55
2016-12-15T15:08:48.961Z,6.64
2016-12-15T15:09:59.944Z,6.55
2016-12-15T15:11:10.987Z,6.55
2016-12-15T15:12:22.179Z,6.52
2016-12-15T15:13:33.165Z,6.47
2016-12-15T15:14:44.150Z,6.42
2016-12-15T15:15:55.134Z,6.37
2016-12-15T15:17:06.126Z,6.4
2016-12-15T15:18:17.144Z,6.34
2016-12-15T15:19:28.131Z,6.34
2016-12-15T15:20:39.115Z,6.34
2016-12-15T15:21:50.093Z,6.36
2016-12-15T15:23:01.288Z,6.25
2016-12-15T15:24:12.468Z,6.26
2016-12-15T15:25:23.456Z,6.2
2016-12-15T15:26:34.438Z,6.2
2016-12-15T15:27:45.824Z,6.17
2016-12-15T15:28:56.809Z,6.13
2016-12-15T15:30:07.845Z,6.13
2016-12-15T15:31:19.032Z,6.21
2016-12-15T15:32:30.018Z,6.1
2016-12-15T15:33:41.013Z,6.17
2016-12-15T15:34:51.994Z,6.18
2016-12-15T15:36:03.026Z,6.14
2016-12-15T15:37:14.018Z,6.07
2016-12-15T15:38:25.003Z,6.06
2016-12-15T15:39:35.995Z,6.07
2016-12-15T15:40:46.976Z,5.96
2016-12-15T15:41:58.010Z,5.89
2016-12-15T15:43:09.000Z,5.92
2016-12-15T15:44:20.014Z,6.06
2016-12-15T15:45:30.998Z,6
2016-12-15T15:46:42.189Z,6